createdAt,value
2018-10-03T00:01:35.649Z,9.20
2018-10-03T00:04:04.419Z,9.10
2018-10-03T00:06:33.211Z,9.00
2018-10-03T00:09:01.712Z,9.00
2018-10-03T00:11:30.309Z,9.00
2018-10-03T00:13:58.813Z,8.90
2018-10-03T00:16:27.337Z,8.80
2018-10-03T00:18:55.860Z,8.80
2018-10-03T00:21:24.414Z,8.70
2018-10-03T00:23:52.910Z,8.60
2018-10-03T00:26:21.396Z,8.70
2018-10-03T00:28:49.894Z,8.60
2018-10-03T00:31:18.391Z,8.60
2018-10-03T00:33:46.846Z,8.60
2018-10-03T00:36:15.333Z,8.60
2018-10-03T00:38:43.809Z,8.70
2018-10-03T00:41:12.301Z,8.70
2018-10-03T00:43:40.806Z,8.70
2018-10-03T00:46:09.338Z,8.80
2018-10-03T00:48:37.819Z,8.80
2018-10-03T00:51:06.295Z,8.90
2018-10-03T00:53:34.774Z,9.00
2018-10-03T00:56:03.234Z,9.00
2018-10-03T00:58:31.747Z,9.00
2018-10-03T01:01:00.276Z,9.00
2018-10-03T01:03:28.749Z,9.10
2018-10-03T01:05:57.238Z,9.10
2018-10-03T01:08:25.690Z,9.00
2018-10-03T01:10:54.305Z,9.00
2018-10-03T01:13:22.753Z,9.00
2018-10-03T01:15:51.234Z,8.90
2018-10-03T01:18:19.720Z,8.90
2018-10-03T01:20:48.213Z,8.90
2018-10-03T01:23:16.665Z,8.80
2018-10-03T01:25:45.170Z,8.80
2018-10-03T01:28:13.834Z,8.70
2018-10-03T01:30:42.308Z,8.70
2018-10-03T01:33:10.765Z,8.70
2018-10-03T01:35:39.239Z,8.90
2018-10-03T01:38:07.695Z,8.80
2018-10-03T01:40:36.180Z,8.90
2018-10-03T01:43:04.633Z,8.90
2018-10-03T01:45:33.118Z,8.90
2018-10-03T01:48:01.549Z,8.90
2018-10-03T01:50:30.039Z,8.90
2018-10-03T01:52:58.506Z,9.00
2018-10-03T01:55:27.016Z,9.00
2018-10-03T01:57:55.474Z,9.00
2018-10-03T02:00:23.957Z,9.00
2018-10-03T02:02:52.448Z,9.00
2018-10-03T02:05:20.928Z,9.00
2018-10-03T02:07:49.367Z,9.00
2018-10-03T02:10:17.845Z,9.00
2018-10-03T02:12:46.310Z,9.00
2018-10-03T02:15:14.816Z,9.00
2018-10-03T02:17:43.266Z,9.10
2018-10-03T02:20:11.774Z,9.10
2018-10-03T02:22:40.252Z,9.20
2018-10-03T02:25:08.747Z,9.20
2018-10-03T02:27:37.428Z,9.10
2018-10-03T02:30:06.718Z,9.20
2018-10-03T02:32:35.221Z,9.20
2018-10-03T02:35:03.757Z,9.20
2018-10-03T02:37:32.196Z,9.10
2018-10-03T02:40:00.667Z,9.20
2018-10-03T02:42:29.174Z,9.10
2018-10-03T02:44:57.638Z,9.20
2018-10-03T02:47:26.330Z,9.20
2018-10-03T02:49:54.808Z,9.20
2018-10-03T02:52:23.282Z,9.20
2018-10-03T02:54:51.778Z,9.20
2018-10-03T02:57:20.216Z,9.20
2018-10-03T02:59:48.705Z,9.20
2018-10-03T03:02:17.149Z,9.10
2018-10-03T03:04:45.661Z,9.10
2018-10-03T03:07:14.094Z,9.00
2018-10-03T03:09:42.523Z,8.90
2018-10-03T03:12:10.973Z,8.90
2018-10-03T03:14:39.483Z,8.90
2018-10-03T03:17:07.928Z,8.80
2018-10-03T03:19:36.337Z,8.70
2018-10-03T03:22:04.798Z,8.70
2018-10-03T03:24:33.217Z,8.70
2018-10-03T03:27:01.701Z,8.60
2018-10-03T03:29:31.126Z,8.60
2018-10-03T03:31:59.581Z,8.60
2018-10-03T03:34:28.026Z,8.60
2018-10-03T03:36:56.514Z,8.60
2018-10-03T03:39:25.163Z,8.60
2018-10-03T03:41:53.853Z,8.60
2018-10-03T03:44:22.284Z,8.50
2018-10-03T03:46:50.721Z,8.50
2018-10-03T03:49:19.203Z,8.50
2018-10-03T03:51:47.662Z,8.50
2018-10-03T03:54:16.089Z,8.40
2018-10-03T03:56:44.550Z,8.50
2018-10-03T03:59:12.990Z,8.50
2018-10-03T04:01:41.461Z,8.60
2018-10-03T04:04:09.901Z,8.70
2018-10-03T04:06:38.350Z,8.70
2018-10-03T04:09:07.625Z,8.60
2018-10-03T04:11:36.095Z,8.60
2018-10-03T04:14:04.552Z,8.60
2018-10-03T04:16:33.002Z,8.60
2018-10-03T04:19:01.437Z,8.70
2018-10-03T04:21:34.554Z,8.80
2018-10-03T04:24:03.233Z,8.70
2018-10-03T04:26:31.878Z,8.70
2018-10-03T04:29:00.357Z,8.70
2018-10-03T04:31:28.858Z,8.80
2018-10-03T04:33:57.310Z,8.80
2018-10-03T04:36:26.257Z,8.80
2018-10-03T04:38:54.841Z,8.80
2018-10-03T04:41:23.731Z,8.90
2018-10-03T04:43:52.488Z,9.00
2018-10-03T04:46:21.421Z,9.00
2018-10-03T04:48:50.169Z,8.90
2018-10-03T04:51:18.993Z,9.00
2018-10-03T04:53:47.551Z,9.00
2018-10-03T04:56:16.403Z,9.00
2018-10-03T04:58:44.850Z,8.90
2018-10-03T05:01:13.288Z,8.90
2018-10-03T05:03:41.773Z,8.90
2018-10-03T05:06:10.222Z,8.90
2018-10-03T05:08:38.741Z,8.90
2018-10-03T05:11:07.201Z,8.90
2018-10-03T05:13:35.665Z,8.90
2018-10-03T05:16:04.110Z,8.80
2018-10-03T05:18:32.570Z,8.80
2018-10-03T05:21:01.073Z,8.80
2018-10-03T05:23:29.529Z,8.80
2018-10-03T05:25:57.960Z,8.80
2018-10-03T05:28:26.417Z,8.80
2018-10-03T05:30:54.998Z,8.80
2018-10-03T05:33:23.526Z,8.80
2018-10-03T05:35:51.908Z,8.90
2018-10-03T05:38:20.369Z,8.80
2018-10-03T05:40:48.822Z,8.90
2018-10-03T05:43:17.576Z,8.90
2018-10-03T05:45:46.047Z,8.90
2018-10-03T05:48:14.528Z,9.00
2018-10-03T05:50:42.910Z,8.90
2018-10-03T05:53:11.385Z,9.00
2018-10-03T05:55:39.856Z,9.00
2018-10-03T05:58:08.341Z,9.10
2018-10-03T06:00:37.119Z,9.20
2018-10-03T06:03:05.658Z,9.20
2018-10-03T06:05:34.170Z,9.10
2018-10-03T06:08:02.633Z,9.10
2018-10-03T06:10:31.095Z,9.20
2018-10-03T06:12:59.856Z,9.20
2018-10-03T06:15:28.333Z,9.30
2018-10-03T06:17:56.785Z,9.30
2018-10-03T06:20:25.197Z,9.30
2018-10-03T06:22:53.683Z,9.40
2018-10-03T06:25:22.126Z,9.40
2018-10-03T06:27:50.629Z,9.40
2018-10-03T06:30:19.077Z,9.40
2018-10-03T06:32:47.580Z,9.30
2018-10-03T06:35:21.626Z,9.40
2018-10-03T06:37:50.262Z,9.40
2018-10-03T06:40:18.711Z,9.50
2018-10-03T06:42:47.139Z,9.50
2018-10-03T06:45:15.659Z,9.50
2018-10-03T06:47:44.134Z,9.60
2018-10-03T06:50:12.608Z,9.60
2018-10-03T06:52:41.073Z,9.60
2018-10-03T06:55:09.566Z,9.70
2018-10-03T06:57:37.989Z,9.70
2018-10-03T07:00:06.529Z,9.70
2018-10-03T07:02:34.958Z,9.70
2018-10-03T07:05:03.466Z,9.70
2018-10-03T07:07:31.905Z,9.60
2018-10-03T07:10:00.363Z,9.60
2018-10-03T07:12:29.116Z,9.50
2018-10-03T07:14:57.629Z,9.50
2018-10-03T07:17:26.070Z,9.50
2018-10-03T07:19:54.746Z,9.50
2018-10-03T07:22:23.274Z,9.60
2018-10-03T07:24:51.731Z,9.60
2018-10-03T07:27:20.174Z,9.50
2018-10-03T07:29:48.894Z,9.60
2018-10-03T07:32:18.168Z,9.60
2018-10-03T07:34:46.644Z,9.70
2018-10-03T07:37:21.950Z,9.60
2018-10-03T07:39:50.447Z,9.70
2018-10-03T07:42:19.113Z,9.70
2018-10-03T07:44:47.607Z,9.80
2018-10-03T07:47:16.267Z,9.90
2018-10-03T07:49:44.710Z,9.90
2018-10-03T07:52:13.186Z,9.90
2018-10-03T07:54:42.026Z,9.90
2018-10-03T07:57:11.517Z,9.90
2018-10-03T07:59:40.299Z,10.00
2018-10-03T08:02:08.726Z,10.00
2018-10-03T08:04:37.233Z,10.20
2018-10-03T08:07:05.818Z,10.30
2018-10-03T08:09:34.283Z,10.30
2018-10-03T08:12:02.765Z,10.50
2018-10-03T08:14:32.130Z,10.60
2018-10-03T08:17:00.617Z,10.60
2018-10-03T08:19:29.101Z,10.80
2018-10-03T08:21:57.996Z,10.90
2018-10-03T08:24:26.682Z,10.90
2018-10-03T08:26:55.398Z,11.10
2018-10-03T08:29:23.893Z,11.20
2018-10-03T08:31:52.309Z,11.30
2018-10-03T08:34:20.781Z,11.40
2018-10-03T08:36:49.355Z,11.60
2018-10-03T08:39:19.917Z,11.70
2018-10-03T08:41:48.366Z,11.60
2018-10-03T08:44:16.816Z,11.60
2018-10-03T08:46:45.461Z,11.80
2018-10-03T08:49:13.937Z,11.90
2018-10-03T08:51:42.364Z,12.20
2018-10-03T08:54:10.828Z,12.30
2018-10-03T08:56:39.285Z,12.30
2018-10-03T08:59:07.775Z,12.40
2018-10-03T09:01:36.219Z,12.50
2018-10-03T09:04:04.680Z,12.70
2018-10-03T09:06:33.142Z,12.80
2018-10-03T09:09:01.598Z,12.80
2018-10-03T09:11:30.055Z,12.80
2018-10-03T09:13:58.480Z,12.90
2018-10-03T09:16:26.926Z,13.20
2018-10-03T09:18:55.331Z,13.30
2018-10-03T09:21:23.819Z,13.40
2018-10-03T09:23:52.249Z,13.60
2018-10-03T09:26:20.711Z,13.60
2018-10-03T09:28:49.562Z,13.70
2018-10-03T09:31:18.045Z,13.90
2018-10-03T09:33:46.463Z,13.90
2018-10-03T09:36:14.941Z,13.80
2018-10-03T09:38:43.345Z,13.80
2018-10-03T09:41:11.810Z,13.60
2018-10-03T09:43:40.304Z,13.50
2018-10-03T09:46:08.712Z,13.40
2018-10-03T09:48:37.117Z,13.20
2018-10-03T09:51:05.588Z,13.10
2018-10-03T09:53:34.001Z,13.10
2018-10-03T09:56:02.441Z,13.00
2018-10-03T09:58:30.870Z,13.10
2018-10-03T10:01:04.672Z,13.20
2018-10-03T10:03:33.101Z,13.40
2018-10-03T10:06:01.568Z,13.50
2018-10-03T10:08:30.003Z,13.60
2018-10-03T10:10:58.515Z,13.80
2018-10-03T10:13:29.729Z,13.90
2018-10-03T10:15:58.226Z,14.00
2018-10-03T10:18:26.704Z,14.00
2018-10-03T10:20:55.395Z,14.20
2018-10-03T10:23:23.606Z,14.40
2018-10-03T10:25:52.053Z,14.50
2018-10-03T10:28:20.465Z,14.60
2018-10-03T10:30:48.929Z,14.40
2018-10-03T10:33:17.794Z,14.40
2018-10-03T10:35:46.236Z,14.40
2018-10-03T10:38:14.858Z,14.20
2018-10-03T10:40:43.612Z,14.00
2018-10-03T10:43:11.873Z,14.00
2018-10-03T10:45:40.249Z,14.20
2018-10-03T10:48:08.708Z,14.30
2018-10-03T10:50:37.149Z,14.10
2018-10-03T10:53:05.601Z,14.10
2018-10-03T10:55:34.015Z,14.10
2018-10-03T10:58:02.454Z,14.10
2018-10-03T11:00:30.887Z,14.10
2018-10-03T11:03:04.703Z,14.30
2018-10-03T11:05:33.156Z,14.60
2018-10-03T11:08:01.670Z,14.40
2018-10-03T11:10:30.089Z,14.40
2018-10-03T11:12:58.543Z,14.70
2018-10-03T11:15:27.040Z,14.90
2018-10-03T11:17:55.430Z,14.70
2018-10-03T11:20:23.847Z,14.70
2018-10-03T11:22:53.299Z,14.60
2018-10-03T11:25:21.747Z,14.50
2018-10-03T11:27:50.427Z,14.50
2018-10-03T11:30:18.855Z,14.40
2018-10-03T11:32:47.289Z,14.40
2018-10-03T11:35:15.864Z,14.30
2018-10-03T11:37:44.302Z,14.50
2018-10-03T11:40:12.783Z,14.60
2018-10-03T11:42:41.274Z,14.60
2018-10-03T11:45:09.945Z,14.70
2018-10-03T11:47:38.487Z,14.80
2018-10-03T11:50:06.993Z,14.80
2018-10-03T11:52:35.461Z,14.70
2018-10-03T11:55:03.974Z,14.40
2018-10-03T11:57:32.441Z,14.20
2018-10-03T12:00:00.926Z,14.10
2018-10-03T12:02:29.592Z,14.10
2018-10-03T12:04:58.045Z,14.30
2018-10-03T12:07:26.495Z,14.40
2018-10-03T12:09:54.908Z,14.30
2018-10-03T12:12:23.605Z,14.30
2018-10-03T12:14:52.026Z,14.30
2018-10-03T12:17:21.974Z,14.40
2018-10-03T12:19:50.473Z,14.30
2018-10-03T12:22:19.181Z,14.10
2018-10-03T12:24:47.623Z,14.00
2018-10-03T12:27:16.081Z,14.00
2018-10-03T12:29:44.558Z,14.10
2018-10-03T12:32:12.997Z,14.10
2018-10-03T12:34:41.494Z,14.10
2018-10-03T12:37:09.939Z,14.20
2018-10-03T12:39:38.446Z,14.50
2018-10-03T12:42:06.917Z,14.50
2018-10-03T12:44:35.377Z,14.40
2018-10-03T12:47:03.865Z,14.60
2018-10-03T12:49:32.354Z,14.40
2018-10-03T12:52:00.773Z,14.20
2018-10-03T12:54:29.256Z,14.10
2018-10-03T12:56:57.726Z,14.10
2018-10-03T12:59:26.197Z,14.10
2018-10-03T13:01:54.722Z,13.90
2018-10-03T13:04:23.321Z,13.90
2018-10-03T13:06:51.775Z,13.80
2018-10-03T13:09:20.950Z,13.80
2018-10-03T13:11:49.830Z,13.80
2018-10-03T13:14:18.362Z,13.80
2018-10-03T13:16:46.837Z,13.70
2018-10-03T13:19:15.364Z,13.60
2018-10-03T13:21:44.010Z,13.60
2018-10-03T13:24:12.545Z,13.70
2018-10-03T13:26:41.034Z,13.90
2018-10-03T13:29:09.575Z,13.90
2018-10-03T13:31:38.211Z,13.90
2018-10-03T13:34:06.811Z,13.80
2018-10-03T13:36:35.222Z,13.80
2018-10-03T13:39:04.090Z,13.70
2018-10-03T13:41:33.271Z,13.80
2018-10-03T13:44:01.783Z,13.70
2018-10-03T13:46:30.220Z,13.60
2018-10-03T13:48:58.695Z,13.70
2018-10-03T13:51:27.391Z,13.80
2018-10-03T13:53:55.835Z,13.70
2018-10-03T13:56:24.282Z,13.60
2018-10-03T13:58:52.738Z,13.50
2018-10-03T14:01:21.178Z,13.50
2018-10-03T14:03:49.682Z,13.50
2018-10-03T14:06:18.166Z,13.60
2018-10-03T14:08:46.642Z,13.80
2018-10-03T14:11:15.136Z,13.70
2018-10-03T14:13:43.573Z,13.70
2018-10-03T14:16:11.990Z,13.80
2018-10-03T14:18:40.520Z,14.00
2018-10-03T14:21:08.971Z,14.30
2018-10-03T14:23:37.453Z,14.30
2018-10-03T14:26:05.889Z,14.20
2018-10-03T14:28:34.317Z,14.10
2018-10-03T14:31:02.777Z,14.00
2018-10-03T14:33:31.217Z,13.70
2018-10-03T14:35:59.683Z,13.80
2018-10-03T14:38:28.182Z,13.80
2018-10-03T14:40:56.661Z,13.90
2018-10-03T14:43:25.080Z,14.10
2018-10-03T14:45:53.526Z,14.10
2018-10-03T14:48:22.162Z,14.20
2018-10-03T14:50:50.613Z,14.30
2018-10-03T14:53:19.141Z,14.30
2018-10-03T14:55:47.649Z,14.30
2018-10-03T14:58:16.174Z,14.20
2018-10-03T15:00:44.583Z,14.10
2018-10-03T15:03:13.247Z,14.00
2018-10-03T15:05:41.741Z,13.90
2018-10-03T15:08:10.398Z,13.80
2018-10-03T15:10:38.891Z,13.70
2018-10-03T15:13:07.345Z,13.70
2018-10-03T15:15:35.829Z,13.70
2018-10-03T15:18:04.295Z,13.60
2018-10-03T15:20:32.746Z,13.60
2018-10-03T15:23:01.147Z,13.50
2018-10-03T15:25:29.568Z,13.50
2018-10-03T15:27:57.989Z,13.60
2018-10-03T15:30:26.428Z,13.50
2018-10-03T15:32:54.900Z,13.50
2018-10-03T15:35:23.365Z,13.40
2018-10-03T15:37:51.870Z,13.40
2018-10-03T15:40:20.316Z,13.30
2018-10-03T15:42:48.756Z,13.30
2018-10-03T15:45:17.225Z,13.30
2018-10-03T15:47:45.644Z,13.30
2018-10-03T15:50:14.167Z,13.30
2018-10-03T15:52:42.590Z,13.40
2018-10-03T15:55:11.272Z,13.30
2018-10-03T15:57:39.636Z,13.30
2018-10-03T16:00:08.455Z,13.30
2018-10-03T16:02:36.870Z,13.30
2018-10-03T16:05:06.445Z,13.40
2018-10-03T16:07:35.285Z,13.30
2018-10-03T16:10:03.815Z,13.30
2018-10-03T16:12:32.234Z,13.20
2018-10-03T16:15:00.645Z,13.20
2018-10-03T16:17:29.087Z,13.10
2018-10-03T16:19:57.493Z,13.10
2018-10-03T16:22:25.956Z,13.00
2018-10-03T16:24:54.390Z,12.90
2018-10-03T16:27:22.873Z,12.90
2018-10-03T16:29:51.287Z,12.80
2018-10-03T16:32:19.758Z,12.80
2018-10-03T16:34:48.182Z,12.80
2018-10-03T16:37:16.643Z,12.80
2018-10-03T16:39:49.580Z,12.80
2018-10-03T16:42:18.013Z,12.80
2018-10-03T16:44:46.425Z,12.80
2018-10-03T16:47:14.903Z,12.80
2018-10-03T16:49:43.359Z,12.80
2018-10-03T16:52:11.863Z,12.70
2018-10-03T16:54:40.286Z,12.70
2018-10-03T16:57:08.741Z,12.50
2018-10-03T16:59:37.190Z,12.50
2018-10-03T17:02:05.657Z,12.50
2018-10-03T17:04:34.113Z,12.40
2018-10-03T17:07:02.575Z,12.20
2018-10-03T17:09:30.989Z,12.20
2018-10-03T17:11:59.443Z,12.10
2018-10-03T17:14:33.114Z,12.00
2018-10-03T17:17:01.561Z,12.00
2018-10-03T17:19:30.043Z,12.00
2018-10-03T17:21:58.974Z,12.00
2018-10-03T17:24:28.762Z,12.10
2018-10-03T17:26:57.221Z,12.10
2018-10-03T17:29:25.632Z,12.10
2018-10-03T17:31:54.152Z,12.00
2018-10-03T17:34:22.626Z,11.90
2018-10-03T17:36:53.033Z,11.90
2018-10-03T17:39:22.305Z,11.70
2018-10-03T17:41:50.806Z,11.70
2018-10-03T17:44:20.213Z,11.60
2018-10-03T17:46:49.417Z,11.60
2018-10-03T17:49:17.905Z,11.50
2018-10-03T17:51:46.390Z,11.50
2018-10-03T17:54:14.803Z,11.40
2018-10-03T17:56:43.391Z,11.30
2018-10-03T17:59:11.944Z,11.30
2018-10-03T18:01:45.814Z,11.30
2018-10-03T18:04:24.905Z,11.20
2018-10-03T18:06:53.421Z,11.30
2018-10-03T18:09:22.002Z,11.20
2018-10-03T18:11:50.435Z,11.10
2018-10-03T18:14:18.885Z,11.10
2018-10-03T18:16:47.348Z,11.10
2018-10-03T18:19:15.817Z,11.10
2018-10-03T18:21:44.270Z,11.00
2018-10-03T18:24:12.721Z,11.00
2018-10-03T18:26:41.165Z,11.00
2018-10-03T18:29:09.626Z,11.00
2018-10-03T18:31:38.066Z,11.00
2018-10-03T18:34:06.548Z,11.00
2018-10-03T18:36:35.032Z,10.90
2018-10-03T18:39:03.729Z,10.90
2018-10-03T18:41:32.183Z,10.90
2018-10-03T18:44:01.674Z,10.90
2018-10-03T18:46:30.196Z,10.90
2018-10-03T18:48:58.766Z,10.90
2018-10-03T18:51:27.534Z,10.90
2018-10-03T18:53:56.106Z,10.80
2018-10-03T18:56:24.545Z,10.90
2018-10-03T18:58:52.993Z,10.80
2018-10-03T19:01:21.466Z,10.90
2018-10-03T19:03:49.999Z,10.80
2018-10-03T19:06:18.462Z,10.80
2018-10-03T19:08:46.945Z,10.80
2018-10-03T19:11:15.433Z,10.80
2018-10-03T19:13:43.927Z,10.80
2018-10-03T19:16:12.365Z,10.80
2018-10-03T19:18:41.076Z,10.80
2018-10-03T19:21:09.589Z,10.80
2018-10-03T19:23:38.165Z,10.80
2018-10-03T19:26:06.771Z,10.70
2018-10-03T19:28:35.165Z,10.80
2018-10-03T19:31:03.613Z,10.70
2018-10-03T19:33:32.251Z,10.70
2018-10-03T19:36:00.678Z,10.60
2018-10-03T19:38:29.143Z,10.60
2018-10-03T19:40:57.594Z,10.60
2018-10-03T19:43:26.717Z,10.60
2018-10-03T19:45:55.169Z,10.50
2018-10-03T19:48:23.666Z,10.60
2018-10-03T19:50:52.100Z,10.60
2018-10-03T19:53:25.829Z,10.60
2018-10-03T19:55:54.870Z,10.60
2018-10-03T19:58:23.777Z,10.50
2018-10-03T20:00:52.258Z,10.50
2018-10-03T20:03:20.729Z,10.50
2018-10-03T20:05:49.270Z,10.50
2018-10-03T20:08:21.522Z,10.50
2018-10-03T20:10:50.497Z,10.50
2018-10-03T20:13:20.634Z,10.50
2018-10-03T20:15:51.234Z,10.50
2018-10-03T20:18:21.289Z,10.50
2018-10-03T20:20:51.576Z,10.50
2018-10-03T20:23:20.117Z,10.50
2018-10-03T20:25:48.604Z,10.50
2018-10-03T20:28:17.279Z,10.50
2018-10-03T20:30:45.789Z,10.50
2018-10-03T20:33:14.234Z,10.50
2018-10-03T20:35:43.481Z,10.50
2018-10-03T20:38:14.085Z,10.50
2018-10-03T20:40:42.576Z,10.40
2018-10-03T20:43:11.958Z,10.40
2018-10-03T20:45:40.432Z,10.40
2018-10-03T20:48:08.869Z,10.40
2018-10-03T20:50:37.345Z,10.40
2018-10-03T20:53:05.799Z,10.50
2018-10-03T20:55:34.264Z,10.40
2018-10-03T20:58:02.681Z,10.40
2018-10-03T21:00:32.749Z,10.40
2018-10-03T21:03:01.209Z,10.40
2018-10-03T21:05:29.702Z,10.40
2018-10-03T21:08:03.346Z,10.30
2018-10-03T21:10:31.805Z,10.40
2018-10-03T21:13:00.298Z,10.40
2018-10-03T21:15:28.993Z,10.40
2018-10-03T21:17:57.837Z,10.40
2018-10-03T21:20:26.302Z,10.50
2018-10-03T21:22:54.713Z,10.50
2018-10-03T21:25:23.174Z,10.60
2018-10-03T21:27:51.617Z,10.70
2018-10-03T21:30:20.078Z,10.80
2018-10-03T21:32:48.533Z,10.80
2018-10-03T21:35:16.997Z,10.90
2018-10-03T21:37:45.441Z,10.90
2018-10-03T21:40:13.898Z,10.90
2018-10-03T21:42:42.304Z,11.00
2018-10-03T21:45:10.786Z,11.00
2018-10-03T21:47:39.230Z,11.00
2018-10-03T21:50:07.742Z,11.00
2018-10-03T21:52:36.182Z,10.80
2018-10-03T21:55:04.618Z,10.60
2018-10-03T21:57:33.048Z,10.50
2018-10-03T22:00:01.514Z,10.40
2018-10-03T22:02:29.932Z,10.40
2018-10-03T22:04:58.414Z,10.40
2018-10-03T22:07:26.925Z,10.30
2018-10-03T22:09:55.377Z,10.30
2018-10-03T22:12:23.790Z,10.30
2018-10-03T22:14:52.247Z,10.20
2018-10-03T22:17:24.069Z,10.20
2018-10-03T22:19:53.349Z,10.20
2018-10-03T22:22:21.786Z,10.10
2018-10-03T22:24:50.268Z,10.00
2018-10-03T22:27:18.733Z,10.00
2018-10-03T22:29:47.873Z,10.10
2018-10-03T22:32:16.339Z,10.10
2018-10-03T22:34:44.773Z,10.10
2018-10-03T22:37:13.244Z,9.90
2018-10-03T22:39:42.233Z,9.90
2018-10-03T22:42:10.695Z,9.90
2018-10-03T22:44:39.189Z,10.00
2018-10-03T22:47:07.801Z,10.00
2018-10-03T22:49:36.259Z,10.00
2018-10-03T22:52:04.774Z,9.90
2018-10-03T22:54:33.244Z,9.90
2018-10-03T22:57:01.696Z,9.90
2018-10-03T22:59:30.397Z,9.90
2018-10-03T23:01:58.909Z,9.80
2018-10-03T23:04:28.146Z,9.80
2018-10-03T23:06:56.625Z,9.80
2018-10-03T23:09:25.089Z,9.80
2018-10-03T23:11:53.554Z,9.70
2018-10-03T23:14:21.993Z,9.70
2018-10-03T23:16:50.461Z,9.70
2018-10-03T23:19:18.876Z,9.60
2018-10-03T23:21:47.328Z,9.50
2018-10-03T23:24:15.778Z,9.50
2018-10-03T23:26:44.318Z,9.50
2018-10-03T23:29:12.774Z,9.50
2018-10-03T23:31:41.227Z,9.50
2018-10-03T23:34:09.670Z,9.50
2018-10-03T23:36:38.120Z,9.40
2018-10-03T23:39:08.881Z,9.40
2018-10-03T23:41:37.523Z,9.30
2018-10-03T23:44:05.954Z,9.30
2018-10-03T23:46:34.514Z,9.30
2018-10-03T23:49:02.929Z,9.20
2018-10-03T23:51:31.433Z,9.20
2018-10-03T23:53:59.910Z,9.10
2018-10-03T23:56:28.430Z,9.10
2018-10-03T23:58:56.846Z,9.00
